sensor_id;sensor_type;location;lat;lon;timestamp;P1;durP1;ratioP1;P2;durP2;ratioP2
14849;SDS011;7517;48.400;11.770;2023-05-20T00:01:57;2.17;;;2.07;;
14849;SDS011;7517;48.400;11.770;2023-05-20T00:04:24;2.40;;;1.90;;
14849;SDS011;7517;48.400;11.770;2023-05-20T00:06:51;2.30;;;2.20;;
14849;SDS011;7517;48.400;11.770;2023-05-20T00:09:19;2.37;;;2.17;;
14849;SDS011;7517;48.400;11.770;2023-05-20T00:11:46;2.00;;;1.90;;
14849;SDS011;7517;48.400;11.770;2023-05-20T00:14:13;2.00;;;1.90;;
14849;SDS011;7517;48.400;11.770;2023-05-20T00:16:42;2.87;;;2.20;;
14849;SDS011;7517;48.400;11.770;2023-05-20T00:19:09;2.40;;;2.17;;
14849;SDS011;7517;48.400;11.770;2023-05-20T00:21:36;2.30;;;2.10;;
14849;SDS011;7517;48.400;11.770;2023-05-20T00:24:03;2.50;;;2.30;;
14849;SDS011;7517;48.400;11.770;2023-05-20T00:26:32;1.80;;;1.70;;
14849;SDS011;7517;48.400;11.770;2023-05-20T00:28:59;2.00;;;1.90;;
14849;SDS011;7517;48.400;11.770;2023-05-20T00:31:26;2.63;;;2.00;;
14849;SDS011;7517;48.400;11.770;2023-05-20T00:33:55;2.50;;;2.30;;
14849;SDS011;7517;48.400;11.770;2023-05-20T00:36:22;2.13;;;2.03;;
14849;SDS011;7517;48.400;11.770;2023-05-20T00:38:49;2.50;;;2.30;;
14849;SDS011;7517;48.400;11.770;2023-05-20T00:41:16;2.07;;;1.97;;
14849;SDS011;7517;48.400;11.770;2023-05-20T00:43:44;2.47;;;2.27;;
14849;SDS011;7517;48.400;11.770;2023-05-20T00:46:11;2.60;;;2.40;;
14849;SDS011;7517;48.400;11.770;2023-05-20T00:48:39;2.77;;;2.57;;
14849;SDS011;7517;48.400;11.770;2023-05-20T00:51:10;2.27;;;2.07;;
14849;SDS011;7517;48.400;11.770;2023-05-20T00:53:40;2.77;;;2.57;;
14849;SDS011;7517;48.400;11.770;2023-05-20T00:56:09;2.43;;;2.33;;
14849;SDS011;7517;48.400;11.770;2023-05-20T00:58:37;2.60;;;2.40;;
14849;SDS011;7517;48.400;11.770;2023-05-20T01:01:05;2.67;;;2.47;;
14849;SDS011;7517;48.400;11.770;2023-05-20T01:03:32;2.73;;;2.53;;
14849;SDS011;7517;48.400;11.770;2023-05-20T01:06:01;2.73;;;2.43;;
14849;SDS011;7517;48.400;11.770;2023-05-20T01:08:29;2.67;;;2.47;;
14849;SDS011;7517;48.400;11.770;2023-05-20T01:11:01;2.60;;;2.40;;
14849;SDS011;7517;48.400;11.770;2023-05-20T01:13:34;2.80;;;2.60;;
14849;SDS011;7517;48.400;11.770;2023-05-20T01:16:08;2.70;;;2.30;;
14849;SDS011;7517;48.400;11.770;2023-05-20T01:18:37;2.40;;;2.27;;
14849;SDS011;7517;48.400;11.770;2023-05-20T01:21:08;2.70;;;2.50;;
14849;SDS011;7517;48.400;11.770;2023-05-20T01:23:40;2.90;;;2.70;;
14849;SDS011;7517;48.400;11.770;2023-05-20T01:26:08;2.73;;;2.53;;
14849;SDS011;7517;48.400;11.770;2023-05-20T01:28:38;2.80;;;2.60;;
14849;SDS011;7517;48.400;11.770;2023-05-20T01:31:08;2.40;;;2.30;;
14849;SDS011;7517;48.400;11.770;2023-05-20T01:33:41;3.07;;;2.77;;
14849;SDS011;7517;48.400;11.770;2023-05-20T01:36:10;2.70;;;2.50;;
14849;SDS011;7517;48.400;11.770;2023-05-20T01:38:38;3.07;;;2.87;;
14849;SDS011;7517;48.400;11.770;2023-05-20T01:41:08;2.40;;;2.20;;
14849;SDS011;7517;48.400;11.770;2023-05-20T01:43:38;2.70;;;2.50;;
14849;SDS011;7517;48.400;11.770;2023-05-20T01:46:06;2.57;;;2.37;;
14849;SDS011;7517;48.400;11.770;2023-05-20T01:48:33;2.70;;;2.50;;
14849;SDS011;7517;48.400;11.770;2023-05-20T01:51:00;2.70;;;2.50;;
14849;SDS011;7517;48.400;11.770;2023-05-20T01:53:27;2.80;;;2.60;;
14849;SDS011;7517;48.400;11.770;2023-05-20T01:55:56;2.67;;;2.47;;
14849;SDS011;7517;48.400;11.770;2023-05-20T01:58:23;3.30;;;3.00;;
14849;SDS011;7517;48.400;11.770;2023-05-20T02:00:51;3.03;;;2.83;;
14849;SDS011;7517;48.400;11.770;2023-05-20T02:03:18;3.27;;;3.07;;
14849;SDS011;7517;48.400;11.770;2023-05-20T02:05:45;2.70;;;2.50;;
14849;SDS011;7517;48.400;11.770;2023-05-20T02:08:12;2.60;;;2.40;;
14849;SDS011;7517;48.400;11.770;2023-05-20T02:10:39;2.70;;;2.50;;
14849;SDS011;7517;48.400;11.770;2023-05-20T02:13:08;3.03;;;2.83;;
14849;SDS011;7517;48.400;11.770;2023-05-20T02:15:39;2.90;;;2.70;;
14849;SDS011;7517;48.400;11.770;2023-05-20T02:18:06;2.83;;;2.63;;
14849;SDS011;7517;48.400;11.770;2023-05-20T02:20:36;3.03;;;2.83;;
14849;SDS011;7517;48.400;11.770;2023-05-20T02:23:03;3.00;;;2.80;;
14849;SDS011;7517;48.400;11.770;2023-05-20T02:25:31;3.27;;;3.00;;
14849;SDS011;7517;48.400;11.770;2023-05-20T02:27:58;3.23;;;2.93;;
14849;SDS011;7517;48.400;11.770;2023-05-20T02:30:27;3.03;;;2.73;;
14849;SDS011;7517;48.400;11.770;2023-05-20T02:32:54;2.90;;;2.70;;
14849;SDS011;7517;48.400;11.770;2023-05-20T02:35:21;3.37;;;3.07;;
14849;SDS011;7517;48.400;11.770;2023-05-20T02:37:49;4.33;;;2.97;;
14849;SDS011;7517;48.400;11.770;2023-05-20T02:40:16;3.43;;;3.03;;
14849;SDS011;7517;48.400;11.770;2023-05-20T02:42:43;3.03;;;2.83;;
14849;SDS011;7517;48.400;11.770;2023-05-20T02:45:12;3.20;;;2.90;;
14849;SDS011;7517;48.400;11.770;2023-05-20T02:47:40;2.90;;;2.60;;
14849;SDS011;7517;48.400;11.770;2023-05-20T02:50:08;3.20;;;2.90;;
14849;SDS011;7517;48.400;11.770;2023-05-20T02:52:36;3.37;;;3.17;;
14849;SDS011;7517;48.400;11.770;2023-05-20T02:55:04;3.07;;;2.87;;
14849;SDS011;7517;48.400;11.770;2023-05-20T02:57:32;3.00;;;2.67;;
14849;SDS011;7517;48.400;11.770;2023-05-20T03:00:02;3.30;;;3.10;;
14849;SDS011;7517;48.400;11.770;2023-05-20T03:02:35;2.67;;;2.57;;
14849;SDS011;7517;48.400;11.770;2023-05-20T03:05:04;3.00;;;2.80;;
14849;SDS011;7517;48.400;11.770;2023-05-20T03:07:35;3.30;;;3.03;;
14849;SDS011;7517;48.400;11.770;2023-05-20T03:10:03;3.03;;;2.83;;
14849;SDS011;7517;48.400;11.770;2023-05-20T03:12:32;3.33;;;3.03;;
14849;SDS011;7517;48.400;11.770;2023-05-20T03:14:59;2.80;;;2.60;;
14849;SDS011;7517;48.400;11.770;2023-05-20T03:17:26;3.10;;;2.90;;
14849;SDS011;7517;48.400;11.770;2023-05-20T03:19:55;2.83;;;2.63;;
14849;SDS011;7517;48.400;11.770;2023-05-20T03:22:24;3.07;;;2.87;;
14849;SDS011;7517;48.400;11.770;2023-05-20T03:24:51;3.30;;;3.00;;
14849;SDS011;7517;48.400;11.770;2023-05-20T03:27:18;3.47;;;3.27;;
14849;SDS011;7517;48.400;11.770;2023-05-20T03:29:46;3.70;;;3.40;;
14849;SDS011;7517;48.400;11.770;2023-05-20T03:32:13;3.33;;;3.13;;
14849;SDS011;7517;48.400;11.770;2023-05-20T03:34:40;3.10;;;2.90;;
14849;SDS011;7517;48.400;11.770;2023-05-20T03:37:08;3.13;;;2.93;;
14849;SDS011;7517;48.400;11.770;2023-05-20T03:39:36;3.10;;;2.90;;
14849;SDS011;7517;48.400;11.770;2023-05-20T03:42:04;3.63;;;3.37;;
14849;SDS011;7517;48.400;11.770;2023-05-20T03:44:31;3.07;;;2.87;;
14849;SDS011;7517;48.400;11.770;2023-05-20T03:46:58;3.30;;;3.10;;
14849;SDS011;7517;48.400;11.770;2023-05-20T03:49:26;3.27;;;2.97;;
14849;SDS011;7517;48.400;11.770;2023-05-20T03:51:53;3.20;;;3.00;;
14849;SDS011;7517;48.400;11.770;2023-05-20T03:54:20;3.40;;;3.20;;
14849;SDS011;7517;48.400;11.770;2023-05-20T03:56:49;3.23;;;2.97;;
14849;SDS011;7517;48.400;11.770;2023-05-20T03:59:17;3.37;;;3.17;;
14849;SDS011;7517;48.400;11.770;2023-05-20T04:01:46;2.97;;;2.77;;
14849;SDS011;7517;48.400;11.770;2023-05-20T04:04:14;3.30;;;3.00;;
14849;SDS011;7517;48.400;11.770;2023-05-20T04:06:41;3.63;;;3.30;;
14849;SDS011;7517;48.400;11.770;2023-05-20T04:09:09;3.40;;;3.10;;
14849;SDS011;7517;48.400;11.770;2023-05-20T04:11:36;3.60;;;3.30;;
14849;SDS011;7517;48.400;11.770;2023-05-20T04:14:05;3.33;;;2.90;;
14849;SDS011;7517;48.400;11.770;2023-05-20T04:16:32;3.20;;;3.00;;
14849;SDS011;7517;48.400;11.770;2023-05-20T04:19:01;3.57;;;3.23;;
14849;SDS011;7517;48.400;11.770;2023-05-20T04:21:28;2.93;;;2.73;;
14849;SDS011;7517;48.400;11.770;2023-05-20T04:23:56;3.30;;;3.10;;
14849;SDS011;7517;48.400;11.770;2023-05-20T04:26:23;3.60;;;3.30;;
14849;SDS011;7517;48.400;11.770;2023-05-20T04:28:51;3.97;;;3.50;;
14849;SDS011;7517;48.400;11.770;2023-05-20T04:31:20;4.17;;;3.87;;
14849;SDS011;7517;48.400;11.770;2023-05-20T04:33:50;3.50;;;3.20;;
14849;SDS011;7517;48.400;11.770;2023-05-20T04:36:17;3.57;;;3.23;;
14849;SDS011;7517;48.400;11.770;2023-05-20T04:38:46;3.73;;;3.37;;
14849;SDS011;7517;48.400;11.770;2023-05-20T04:41:13;3.93;;;3.40;;
14849;SDS011;7517;48.400;11.770;2023-05-20T04:43:41;3.50;;;3.30;;
14849;SDS011;7517;48.400;11.770;2023-05-20T04:46:08;3.90;;;3.47;;
14849;SDS011;7517;48.400;11.770;2023-05-20T04:48:36;3.53;;;3.33;;
14849;SDS011;7517;48.400;11.770;2023-05-20T04:51:04;3.90;;;3.60;;
14849;SDS011;7517;48.400;11.770;2023-05-20T04:53:34;3.87;;;3.57;;
14849;SDS011;7517;48.400;11.770;2023-05-20T04:56:02;3.90;;;3.60;;
14849;SDS011;7517;48.400;11.770;2023-05-20T04:58:29;3.87;;;3.57;;
14849;SDS011;7517;48.400;11.770;2023-05-20T05:00:57;3.43;;;3.13;;
14849;SDS011;7517;48.400;11.770;2023-05-20T05:03:25;3.57;;;3.37;;
14849;SDS011;7517;48.400;11.770;2023-05-20T05:05:55;3.83;;;3.53;;
14849;SDS011;7517;48.400;11.770;2023-05-20T05:08:23;3.90;;;3.60;;
14849;SDS011;7517;48.400;11.770;2023-05-20T05:10:51;4.77;;;3.83;;
14849;SDS011;7517;48.400;11.770;2023-05-20T05:13:19;3.77;;;3.50;;
14849;SDS011;7517;48.400;11.770;2023-05-20T05:15:46;3.47;;;3.27;;
14849;SDS011;7517;48.400;11.770;2023-05-20T05:18:13;4.00;;;3.70;;
14849;SDS011;7517;48.400;11.770;2023-05-20T05:20:42;4.07;;;3.77;;
14849;SDS011;7517;48.400;11.770;2023-05-20T05:23:11;3.90;;;3.60;;
14849;SDS011;7517;48.400;11.770;2023-05-20T05:25:38;4.57;;;3.73;;
14849;SDS011;7517;48.400;11.770;2023-05-20T05:28:05;4.30;;;4.00;;
14849;SDS011;7517;48.400;11.770;2023-05-20T05:30:32;3.77;;;3.57;;
14849;SDS011;7517;48.400;11.770;2023-05-20T05:33:01;4.33;;;4.00;;
14849;SDS011;7517;48.400;11.770;2023-05-20T05:35:28;4.27;;;3.70;;
14849;SDS011;7517;48.400;11.770;2023-05-20T05:37:56;4.47;;;4.17;;
14849;SDS011;7517;48.400;11.770;2023-05-20T05:40:25;4.17;;;3.87;;
14849;SDS011;7517;48.400;11.770;2023-05-20T05:42:52;4.33;;;3.63;;
14849;SDS011;7517;48.400;11.770;2023-05-20T05:45:19;3.67;;;3.47;;
14849;SDS011;7517;48.400;11.770;2023-05-20T05:47:47;3.83;;;3.53;;
14849;SDS011;7517;48.400;11.770;2023-05-20T05:50:14;3.73;;;3.43;;
14849;SDS011;7517;48.400;11.770;2023-05-20T05:52:41;4.20;;;3.90;;
14849;SDS011;7517;48.400;11.770;2023-05-20T05:55:10;4.00;;;3.70;;
14849;SDS011;7517;48.400;11.770;2023-05-20T05:57:39;4.17;;;3.77;;
14849;SDS011;7517;48.400;11.770;2023-05-20T06:00:06;4.07;;;3.77;;
14849;SDS011;7517;48.400;11.770;2023-05-20T06:02:35;4.40;;;3.97;;
14849;SDS011;7517;48.400;11.770;2023-05-20T06:05:02;4.57;;;4.27;;
14849;SDS011;7517;48.400;11.770;2023-05-20T06:07:31;3.67;;;3.40;;
14849;SDS011;7517;48.400;11.770;2023-05-20T06:09:58;4.00;;;3.70;;
14849;SDS011;7517;48.400;11.770;2023-05-20T06:12:25;4.00;;;3.70;;
14849;SDS011;7517;48.400;11.770;2023-05-20T06:14:54;4.30;;;4.00;;
14849;SDS011;7517;48.400;11.770;2023-05-20T06:17:21;4.17;;;3.87;;
14849;SDS011;7517;48.400;11.770;2023-05-20T06:19:49;4.83;;;3.97;;
14849;SDS011;7517;48.400;11.770;2023-05-20T06:22:16;4.20;;;3.90;;
14849;SDS011;7517;48.400;11.770;2023-05-20T06:24:43;3.77;;;3.43;;
14849;SDS011;7517;48.400;11.770;2023-05-20T06:27:11;4.27;;;3.87;;
14849;SDS011;7517;48.400;11.770;2023-05-20T06:29:38;3.93;;;3.63;;
14849;SDS011;7517;48.400;11.770;2023-05-20T06:32:07;4.10;;;3.80;;
14849;SDS011;7517;48.400;11.770;2023-05-20T06:34:34;4.37;;;4.03;;
14849;SDS011;7517;48.400;11.770;2023-05-20T06:37:03;3.90;;;3.60;;
14849;SDS011;7517;48.400;11.770;2023-05-20T06:39:30;3.90;;;3.60;;
14849;SDS011;7517;48.400;11.770;2023-05-20T06:41:58;4.33;;;3.93;;
14849;SDS011;7517;48.400;11.770;2023-05-20T06:44:25;3.93;;;3.63;;
14849;SDS011;7517;48.400;11.770;2023-05-20T06:46:52;4.37;;;4.00;;
14849;SDS011;7517;48.400;11.770;2023-05-20T06:49:21;4.10;;;3.80;;
14849;SDS011;7517;48.400;11.770;2023-05-20T06:51:48;3.90;;;3.50;;
14849;SDS011;7517;48.400;11.770;2023-05-20T06:54:16;4.60;;;3.53;;
14849;SDS011;7517;48.400;11.770;2023-05-20T06:56:43;4.10;;;3.80;;
14849;SDS011;7517;48.400;11.770;2023-05-20T06:59:10;4.40;;;4.00;;
14849;SDS011;7517;48.400;11.770;2023-05-20T07:01:38;4.17;;;3.87;;
14849;SDS011;7517;48.400;11.770;2023-05-20T07:04:05;3.60;;;3.40;;
14849;SDS011;7517;48.400;11.770;2023-05-20T07:06:34;4.77;;;4.37;;
14849;SDS011;7517;48.400;11.770;2023-05-20T07:09:01;4.47;;;4.10;;
14849;SDS011;7517;48.400;11.770;2023-05-20T07:11:29;4.30;;;3.90;;
14849;SDS011;7517;48.400;11.770;2023-05-20T07:13:56;3.67;;;3.47;;
14849;SDS011;7517;48.400;11.770;2023-05-20T07:16:23;4.63;;;3.70;;
14849;SDS011;7517;48.400;11.770;2023-05-20T07:18:51;3.93;;;3.63;;
14849;SDS011;7517;48.400;11.770;2023-05-20T07:23:50;3.87;;;3.60;;
14849;SDS011;7517;48.400;11.770;2023-05-20T07:26:17;4.13;;;3.70;;
14849;SDS011;7517;48.400;11.770;2023-05-20T07:28:44;3.70;;;3.40;;
14849;SDS011;7517;48.400;11.770;2023-05-20T07:31:12;3.30;;;3.10;;
14849;SDS011;7517;48.400;11.770;2023-05-20T07:33:39;3.43;;;3.13;;
14849;SDS011;7517;48.400;11.770;2023-05-20T07:36:06;3.80;;;3.40;;
14849;SDS011;7517;48.400;11.770;2023-05-20T07:38:33;3.33;;;3.13;;
14849;SDS011;7517;48.400;11.770;2023-05-20T07:41:03;3.17;;;2.97;;
14849;SDS011;7517;48.400;11.770;2023-05-20T07:43:31;3.37;;;3.17;;
14849;SDS011;7517;48.400;11.770;2023-05-20T07:45:59;3.27;;;3.07;;
14849;SDS011;7517;48.400;11.770;2023-05-20T07:48:26;3.40;;;3.20;;
14849;SDS011;7517;48.400;11.770;2023-05-20T07:50:54;3.47;;;3.17;;
14849;SDS011;7517;48.400;11.770;2023-05-20T07:53:23;3.10;;;2.90;;
14849;SDS011;7517;48.400;11.770;2023-05-20T07:55:50;3.70;;;3.23;;
14849;SDS011;7517;48.400;11.770;2023-05-20T07:58:20;2.90;;;2.70;;
14849;SDS011;7517;48.400;11.770;2023-05-20T08:00:48;3.20;;;2.90;;
14849;SDS011;7517;48.400;11.770;2023-05-20T08:03:16;2.90;;;2.70;;
14849;SDS011;7517;48.400;11.770;2023-05-20T08:05:44;3.37;;;3.07;;
14849;SDS011;7517;48.400;11.770;2023-05-20T08:08:11;2.53;;;2.43;;
14849;SDS011;7517;48.400;11.770;2023-05-20T08:10:38;2.93;;;2.73;;
14849;SDS011;7517;48.400;11.770;2023-05-20T08:13:05;3.03;;;2.83;;
14849;SDS011;7517;48.400;11.770;2023-05-20T08:15:34;2.97;;;2.77;;
14849;SDS011;7517;48.400;11.770;2023-05-20T08:18:02;3.40;;;2.47;;
14849;SDS011;7517;48.400;11.770;2023-05-20T08:20:29;2.90;;;2.70;;
14849;SDS011;7517;48.400;11.770;2023-05-20T08:22:57;2.87;;;2.67;;
14849;SDS011;7517;48.400;11.770;2023-05-20T08:25:25;3.03;;;2.83;;
14849;SDS011;7517;48.400;11.770;2023-05-20T08:27:52;2.83;;;2.50;;
14849;SDS011;7517;48.400;11.770;2023-05-20T08:30:19;4.67;;;2.60;;
14849;SDS011;7517;48.400;11.770;2023-05-20T08:32:49;2.60;;;2.40;;
14849;SDS011;7517;48.400;11.770;2023-05-20T08:35:16;4.00;;;3.00;;
14849;SDS011;7517;48.400;11.770;2023-05-20T08:37:46;4.07;;;3.07;;
14849;SDS011;7517;48.400;11.770;2023-05-20T08:40:18;2.93;;;2.40;;
14849;SDS011;7517;48.400;11.770;2023-05-20T08:42:47;2.60;;;2.40;;
14849;SDS011;7517;48.400;11.770;2023-05-20T08:45:18;2.73;;;2.53;;
14849;SDS011;7517;48.400;11.770;2023-05-20T08:47:53;2.57;;;2.47;;
14849;SDS011;7517;48.400;11.770;2023-05-20T08:50:21;2.60;;;2.40;;
14849;SDS011;7517;48.400;11.770;2023-05-20T08:52:48;2.53;;;2.33;;
14849;SDS011;7517;48.400;11.770;2023-05-20T08:55:17;2.80;;;2.50;;
14849;SDS011;7517;48.400;11.770;2023-05-20T08:57:51;2.30;;;2.20;;
14849;SDS011;7517;48.400;11.770;2023-05-20T09:00:20;3.10;;;2.47;;
14849;SDS011;7517;48.400;11.770;2023-05-20T09:02:53;2.47;;;2.27;;
14849;SDS011;7517;48.400;11.770;2023-05-20T09:05:21;2.70;;;2.50;;
14849;SDS011;7517;48.400;11.770;2023-05-20T09:07:49;2.57;;;2.37;;
14849;SDS011;7517;48.400;11.770;2023-05-20T09:10:16;2.17;;;2.07;;
14849;SDS011;7517;48.400;11.770;2023-05-20T09:12:45;2.60;;;2.13;;
14849;SDS011;7517;48.400;11.770;2023-05-20T09:15:12;3.13;;;2.47;;
14849;SDS011;7517;48.400;11.770;2023-05-20T09:17:40;2.77;;;2.60;;
14849;SDS011;7517;48.400;11.770;2023-05-20T09:20:10;2.40;;;2.20;;
14849;SDS011;7517;48.400;11.770;2023-05-20T09:22:38;2.63;;;2.40;;
14849;SDS011;7517;48.400;11.770;2023-05-20T09:25:06;2.97;;;2.23;;
14849;SDS011;7517;48.400;11.770;2023-05-20T09:27:36;2.33;;;2.13;;
14849;SDS011;7517;48.400;11.770;2023-05-20T09:30:05;2.17;;;2.07;;
14849;SDS011;7517;48.400;11.770;2023-05-20T09:32:37;2.10;;;2.00;;
14849;SDS011;7517;48.400;11.770;2023-05-20T09:35:05;2.30;;;2.20;;
14849;SDS011;7517;48.400;11.770;2023-05-20T09:37:35;2.17;;;2.07;;
14849;SDS011;7517;48.400;11.770;2023-05-20T09:40:06;4.37;;;2.27;;
14849;SDS011;7517;48.400;11.770;2023-05-20T09:42:43;2.27;;;2.07;;
14849;SDS011;7517;48.400;11.770;2023-05-20T09:45:18;2.47;;;2.10;;
14849;SDS011;7517;48.400;11.770;2023-05-20T09:47:48;2.43;;;2.20;;
14849;SDS011;7517;48.400;11.770;2023-05-20T09:50:17;2.60;;;2.40;;
14849;SDS011;7517;48.400;11.770;2023-05-20T09:52:49;2.30;;;2.20;;
14849;SDS011;7517;48.400;11.770;2023-05-20T09:55:18;2.13;;;2.03;;
14849;SDS011;7517;48.400;11.770;2023-05-20T09:57:48;2.15;;;1.98;;
14849;SDS011;7517;48.400;11.770;2023-05-20T10:00:16;2.30;;;2.20;;
14849;SDS011;7517;48.400;11.770;2023-05-20T10:02:43;2.13;;;2.03;;
14849;SDS011;7517;48.400;11.770;2023-05-20T10:05:14;2.72;;;2.05;;
14849;SDS011;7517;48.400;11.770;2023-05-20T10:07:58;2.80;;;2.30;;
14849;SDS011;7517;48.400;11.770;2023-05-20T10:11:02;2.20;;;2.10;;
14849;SDS011;7517;48.400;11.770;2023-05-20T10:13:56;2.97;;;2.10;;
14849;SDS011;7517;48.400;11.770;2023-05-20T10:16:47;1.98;;;1.88;;
14849;SDS011;7517;48.400;11.770;2023-05-20T10:19:26;2.00;;;1.90;;
14849;SDS011;7517;48.400;11.770;2023-05-20T10:21:57;1.90;;;1.80;;
14849;SDS011;7517;48.400;11.770;2023-05-20T10:24:31;2.58;;;2.20;;
14849;SDS011;7517;48.400;11.770;2023-05-20T10:27:00;2.40;;;2.20;;
14849;SDS011;7517;48.400;11.770;2023-05-20T10:29:41;2.00;;;1.90;;
14849;SDS011;7517;48.400;11.770;2023-05-20T10:32:10;2.15;;;2.00;;
14849;SDS011;7517;48.400;11.770;2023-05-20T10:34:50;1.85;;;1.75;;
14849;SDS011;7517;48.400;11.770;2023-05-20T10:37:20;2.30;;;2.10;;
14849;SDS011;7517;48.400;11.770;2023-05-20T10:40:01;2.43;;;2.30;;
14849;SDS011;7517;48.400;11.770;2023-05-20T10:42:32;2.17;;;2.00;;
14849;SDS011;7517;48.400;11.770;2023-05-20T10:45:00;2.20;;;2.00;;
14849;SDS011;7517;48.400;11.770;2023-05-20T10:47:29;1.90;;;1.80;;
14849;SDS011;7517;48.400;11.770;2023-05-20T10:49:58;2.77;;;2.03;;
14849;SDS011;7517;48.400;11.770;2023-05-20T10:52:26;2.27;;;2.10;;
14849;SDS011;7517;48.400;11.770;2023-05-20T10:54:59;2.37;;;2.23;;
14849;SDS011;7517;48.400;11.770;2023-05-20T10:57:29;1.83;;;1.73;;
14849;SDS011;7517;48.400;11.770;2023-05-20T10:59:57;2.10;;;1.90;;
14849;SDS011;7517;48.400;11.770;2023-05-20T11:02:25;2.00;;;1.90;;
14849;SDS011;7517;48.400;11.770;2023-05-20T11:04:54;2.20;;;2.10;;
14849;SDS011;7517;48.400;11.770;2023-05-20T11:07:24;2.07;;;1.97;;
14849;SDS011;7517;48.400;11.770;2023-05-20T11:09:53;1.90;;;1.80;;
14849;SDS011;7517;48.400;11.770;2023-05-20T11:12:23;2.80;;;2.10;;
14849;SDS011;7517;48.400;11.770;2023-05-20T11:14:52;2.17;;;2.07;;
14849;SDS011;7517;48.400;11.770;2023-05-20T11:17:20;2.13;;;2.03;;
14849;SDS011;7517;48.400;11.770;2023-05-20T11:19:49;3.33;;;2.10;;
14849;SDS011;7517;48.400;11.770;2023-05-20T11:22:16;2.40;;;2.30;;
14849;SDS011;7517;48.400;11.770;2023-05-20T11:24:45;2.53;;;2.20;;
14849;SDS011;7517;48.400;11.770;2023-05-20T11:27:12;2.50;;;2.30;;
14849;SDS011;7517;48.400;11.770;2023-05-20T11:29:41;2.10;;;2.00;;
14849;SDS011;7517;48.400;11.770;2023-05-20T11:32:09;2.15;;;2.05;;
14849;SDS011;7517;48.400;11.770;2023-05-20T11:34:40;2.67;;;2.47;;
14849;SDS011;7517;48.400;11.770;2023-05-20T11:37:08;4.30;;;3.57;;
14849;SDS011;7517;48.400;11.770;2023-05-20T11:39:37;3.23;;;2.60;;
14849;SDS011;7517;48.400;11.770;2023-05-20T11:42:04;2.57;;;2.37;;
14849;SDS011;7517;48.400;11.770;2023-05-20T11:44:32;3.37;;;3.07;;
14849;SDS011;7517;48.400;11.770;2023-05-20T11:47:02;3.07;;;2.50;;
14849;SDS011;7517;48.400;11.770;2023-05-20T11:49:30;2.97;;;2.77;;
14849;SDS011;7517;48.400;11.770;2023-05-20T11:52:07;2.87;;;2.67;;
14849;SDS011;7517;48.400;11.770;2023-05-20T11:54:36;2.97;;;2.37;;
14849;SDS011;7517;48.400;11.770;2023-05-20T11:57:03;2.60;;;2.47;;
14849;SDS011;7517;48.400;11.770;2023-05-20T11:59:31;2.70;;;2.50;;
14849;SDS011;7517;48.400;11.770;2023-05-20T12:01:58;2.33;;;2.13;;
14849;SDS011;7517;48.400;11.770;2023-05-20T12:04:28;2.73;;;2.53;;
14849;SDS011;7517;48.400;11.770;2023-05-20T12:06:55;2.90;;;2.53;;
14849;SDS011;7517;48.400;11.770;2023-05-20T12:09:23;3.10;;;2.80;;
14849;SDS011;7517;48.400;11.770;2023-05-20T12:11:50;3.00;;;2.70;;
14849;SDS011;7517;48.400;11.770;2023-05-20T12:14:20;2.93;;;2.73;;
14849;SDS011;7517;48.400;11.770;2023-05-20T12:16:59;3.22;;;2.95;;
14849;SDS011;7517;48.400;11.770;2023-05-20T12:19:27;3.43;;;3.13;;
14849;SDS011;7517;48.400;11.770;2023-05-20T12:21:55;3.93;;;3.43;;
14849;SDS011;7517;48.400;11.770;2023-05-20T12:24:22;3.13;;;2.88;;
14849;SDS011;7517;48.400;11.770;2023-05-20T12:26:51;3.15;;;2.90;;
14849;SDS011;7517;48.400;11.770;2023-05-20T12:29:18;3.20;;;3.00;;
14849;SDS011;7517;48.400;11.770;2023-05-20T12:31:46;3.15;;;2.85;;
14849;SDS011;7517;48.400;11.770;2023-05-20T12:34:13;3.50;;;3.10;;
14849;SDS011;7517;48.400;11.770;2023-05-20T12:36:42;2.92;;;2.72;;
14849;SDS011;7517;48.400;11.770;2023-05-20T12:39:10;4.00;;;3.25;;
14849;SDS011;7517;48.400;11.770;2023-05-20T12:41:39;3.50;;;3.30;;
14849;SDS011;7517;48.400;11.770;2023-05-20T12:44:06;3.58;;;3.00;;
14849;SDS011;7517;48.400;11.770;2023-05-20T12:46:33;3.08;;;2.88;;
14849;SDS011;7517;48.400;11.770;2023-05-20T12:49:02;3.38;;;3.08;;
14849;SDS011;7517;48.400;11.770;2023-05-20T12:51:29;3.40;;;3.08;;
14849;SDS011;7517;48.400;11.770;2023-05-20T12:53:58;3.60;;;3.22;;
14849;SDS011;7517;48.400;11.770;2023-05-20T12:56:26;3.75;;;3.35;;
14849;SDS011;7517;48.400;11.770;2023-05-20T12:58:54;3.37;;;3.17;;
14849;SDS011;7517;48.400;11.770;2023-05-20T13:01:22;3.03;;;2.83;;
14849;SDS011;7517;48.400;11.770;2023-05-20T13:03:49;6.03;;;3.45;;
14849;SDS011;7517;48.400;11.770;2023-05-20T13:06:17;3.53;;;3.33;;
14849;SDS011;7517;48.400;11.770;2023-05-20T13:08:45;4.03;;;3.72;;
14849;SDS011;7517;48.400;11.770;2023-05-20T13:11:14;3.95;;;3.65;;
14849;SDS011;7517;48.400;11.770;2023-05-20T13:13:41;4.05;;;3.45;;
14849;SDS011;7517;48.400;11.770;2023-05-20T13:16:09;3.80;;;3.40;;
14849;SDS011;7517;48.400;11.770;2023-05-20T13:18:36;3.22;;;3.03;;
14849;SDS011;7517;48.400;11.770;2023-05-20T13:21:03;3.53;;;3.23;;
14849;SDS011;7517;48.400;11.770;2023-05-20T13:23:30;3.53;;;3.28;;
14849;SDS011;7517;48.400;11.770;2023-05-20T13:25:58;4.57;;;3.20;;
14849;SDS011;7517;48.400;11.770;2023-05-20T13:28:29;4.50;;;3.58;;
14849;SDS011;7517;48.400;11.770;2023-05-20T13:30:57;3.70;;;3.40;;
14849;SDS011;7517;48.400;11.770;2023-05-20T13:33:25;11.90;;;10.00;;
14849;SDS011;7517;48.400;11.770;2023-05-20T13:35:52;7.07;;;6.45;;
14849;SDS011;7517;48.400;11.770;2023-05-20T13:38:19;5.28;;;4.88;;
14849;SDS011;7517;48.400;11.770;2023-05-20T13:40:47;8.25;;;6.53;;
14849;SDS011;7517;48.400;11.770;2023-05-20T13:43:14;6.80;;;6.20;;
14849;SDS011;7517;48.400;11.770;2023-05-20T13:45:43;8.82;;;8.00;;
14849;SDS011;7517;48.400;11.770;2023-05-20T13:48:11;5.68;;;5.28;;
14849;SDS011;7517;48.400;11.770;2023-05-20T13:50:38;5.50;;;5.07;;
14849;SDS011;7517;48.400;11.770;2023-05-20T13:53:09;5.07;;;4.50;;
14849;SDS011;7517;48.400;11.770;2023-05-20T13:55:37;4.40;;;4.00;;
14849;SDS011;7517;48.400;11.770;2023-05-20T13:58:05;4.93;;;4.53;;
14849;SDS011;7517;48.400;11.770;2023-05-20T14:00:34;6.57;;;5.85;;
14849;SDS011;7517;48.400;11.770;2023-05-20T14:03:03;6.82;;;6.15;;
14849;SDS011;7517;48.400;11.770;2023-05-20T14:05:33;5.30;;;4.85;;
14849;SDS011;7517;48.400;11.770;2023-05-20T14:08:00;4.43;;;4.13;;
14849;SDS011;7517;48.400;11.770;2023-05-20T14:10:28;6.13;;;4.97;;
14849;SDS011;7517;48.400;11.770;2023-05-20T14:12:56;4.30;;;3.90;;
14849;SDS011;7517;48.400;11.770;2023-05-20T14:15:26;7.80;;;6.70;;
14849;SDS011;7517;48.400;11.770;2023-05-20T14:17:54;5.13;;;4.55;;
14849;SDS011;7517;48.400;11.770;2023-05-20T14:20:24;4.30;;;3.90;;
14849;SDS011;7517;48.400;11.770;2023-05-20T14:22:52;3.50;;;3.20;;
14849;SDS011;7517;48.400;11.770;2023-05-20T14:25:19;3.22;;;3.03;;
14849;SDS011;7517;48.400;11.770;2023-05-20T14:27:46;4.30;;;3.70;;
14849;SDS011;7517;48.400;11.770;2023-05-20T14:30:15;3.47;;;3.28;;
14849;SDS011;7517;48.400;11.770;2023-05-20T14:32:42;3.50;;;3.20;;
14849;SDS011;7517;48.400;11.770;2023-05-20T14:35:10;6.13;;;3.17;;
14849;SDS011;7517;48.400;11.770;2023-05-20T14:37:39;4.03;;;3.50;;
14849;SDS011;7517;48.400;11.770;2023-05-20T14:40:06;3.20;;;2.90;;
14849;SDS011;7517;48.400;11.770;2023-05-20T14:42:36;3.20;;;2.90;;
14849;SDS011;7517;48.400;11.770;2023-05-20T14:45:03;4.90;;;3.40;;
14849;SDS011;7517;48.400;11.770;2023-05-20T14:47:33;4.07;;;3.77;;
14849;SDS011;7517;48.400;11.770;2023-05-20T14:50:04;4.47;;;3.35;;
14849;SDS011;7517;48.400;11.770;2023-05-20T14:52:32;3.83;;;3.53;;
14849;SDS011;7517;48.400;11.770;2023-05-20T14:55:01;3.60;;;3.27;;
14849;SDS011;7517;48.400;11.770;2023-05-20T14:57:29;3.95;;;3.65;;
14849;SDS011;7517;48.400;11.770;2023-05-20T15:00:00;4.22;;;3.90;;